Página principal
METAR-TAF:

METAR-TAF

Aeroportos :

Aeroporto Moscovo Sheremetievo

Moscovo-Sheremetyevo, Rússia

latitude: 55-58N, longitude: 037-25E, altura: 190 m

Observação actual do tempo

O boletim foi feito há 12 minutos, às 04:00 UTC
Vento 4 kt de es-nordeste, variando entre norte e este
Temperatura 15°C
Humidade 77%
Pressão 1021 hPa
Visibilidade 10 km ou mais
sem nuvens abaixo de 1500 metros e sem cumulonimbus

METAR: UUEE 240400Z 06002MPS 360V100 CAVOK 15/11 Q1021 R24C/CLRD62 R24L/CLRD62 NOSIG

Hora: 07:12 (04:12 UTC)

Previsão

O boletim foi feito há 2 horas e 22 minutos, às 01:50 UTC
Previsão válida de 24 às 03 UTC a 25 às 03 UTC
Vento 10 kt de nor-nordeste
Visibilidade 10 km ou mais
Nuvens dispersasa uma altura de 3000 ft

TAF: UUEE 240150Z 2403/2503 02005MPS 9999 SCT030 TX23/2412Z TN10/2502Z

Observações e previsões do tempo de mais de 4000 aeroportos (mensagens METAR e TAF).

As estações disponíveis são os pontos amarelos e vermelhos sobre o mapa.

Mova o rato sobre o mapa para ver o nome da estação.

Depois clique no ponto para visualizar as observações e previsões meteorológicas.

Para alterar o mapa : clique nos botões verdes com uma cruz preta para aumentar o zoom; no botão verde com uma pitada de zoom; ou nas setas verdes para mapas adjacentes.


METAR-TAF: